Etusivu
METAR-TAF:

METAR-TAF

Lentoasemat :

Luulaja, Ruotsi

Luulajan lentoasema

Leveyspiiri: 65-33N, Pituuspiiri: 022-08E, korkeus merenpinnasta: 17 m

Tämänhetkinen sää

Tämä raportti tehtiin 48 minuuttia sitten, kello 00.50 UTC
Tuuli 6 kn kaakosta
Lämpötila -9°C
Kosteus 92%
Ilmanpaine 1025 hPa
Näkyvyys 10 km tai enemmän

METAR: ESPA 180050Z AUTO 13006KT 9999 OVC012/// M09/M10 Q1025

Aika: 02:38 (01:38 UTC)

Sääennuste

Tämä raportti tehtiin 8 tuntia ja 8 minuuttia sitten, kello 17.30 UTC
Ennuste voimassa 17. päivästä klo 18 UTC - 17. päivään klo 20 UTC
Tuuli 4 kn idästä/kaakosta
Näkyvyys 10 km tai enemmän
Pilvistä 1800 ft:n korkeudessa
heikkoa lumisadetta
Todennäköisyys 40%
17. päivästä klo 18 UTC - 17. päivään klo 20 UTC
Pilvistä 1400 ft:n korkeudessa

TAF: ESPA 171730Z 1718/1720 12004KT 9999 -SN OVC018 PROB40 1718/1720 OVC014

Säähavainnot ja -ennusteet yli 4000 lentoasemalta (METAR- ja TAF-raportit).

Käytössä olevat sääasemat on merkitty karttaan keltaisilla ja punaisilla pisteillä.

Aseta hiiri pisteen päälle nähdäksesi sääaseman nimen.

Klikkaa sitten nähdäksesi säähavainnot ja -ennusteet.

Kartan vaihtaminen: klikkaa mustalla rastilla varustettuja vihreitä pisteitä, niin voit zoomata sisään; viivalla varustettua vihreää pistettä, niin voit zoomata ulos tai vihreitä nuolia, niin pääset viereisille kartoille.


METAR-TAF: